createdAt,value
2019-03-17T00:00:02.395Z,0.2
2019-03-17T00:00:14.172Z,0.2
2019-03-17T00:00:25.908Z,0.2
2019-03-17T00:00:37.660Z,0.2
2019-03-17T00:00:49.546Z,0.2
2019-03-17T00:01:01.317Z,0.2
2019-03-17T00:01:13.065Z,0.2
2019-03-17T00:01:24.826Z,0.1
2019-03-17T00:01:36.606Z,0.1
2019-03-17T00:01:56.835Z,0.2
2019-03-17T00:02:01.073Z,0.2
2019-03-17T00:02:12.834Z,0.2
2019-03-17T00:02:24.612Z,0.2
2019-03-17T00:02:36.440Z,0.2
2019-03-17T00:02:48.172Z,0.2
2019-03-17T00:02:59.929Z,0.2
2019-03-17T00:03:11.722Z,0.1
2019-03-17T00:03:23.468Z,0.1
2019-03-17T00:03:35.252Z,0.1
2019-03-17T00:03:47.023Z,0.2
2019-03-17T00:03:58.776Z,0.1
2019-03-17T00:04:10.527Z,0.1
2019-03-17T00:04:30.853Z,0.1
2019-03-17T00:04:35.068Z,0.1
2019-03-17T00:04:46.847Z,0.2
2019-03-17T00:04:58.647Z,0.1
2019-03-17T00:05:10.434Z,0.1
2019-03-17T00:05:22.198Z,0.1
2019-03-17T00:05:33.959Z,0.1
2019-03-17T00:05:45.858Z,0.2
2019-03-17T00:05:57.629Z,0.3
2019-03-17T00:06:09.427Z,0.2
2019-03-17T00:06:21.201Z,0.2
2019-03-17T00:06:32.954Z,0.1
2019-03-17T00:06:44.710Z,0.2
2019-03-17T00:06:56.466Z,0.2
2019-03-17T00:07:08.224Z,0.2
2019-03-17T00:07:19.997Z,0.1
2019-03-17T00:07:31.773Z,0.1
2019-03-17T00:07:43.547Z,0.2
2019-03-17T00:07:55.342Z,0.2
2019-03-17T00:08:07.098Z,0.2
2019-03-17T00:08:18.852Z,0.2
2019-03-17T00:08:30.602Z,0.1
2019-03-17T00:08:42.355Z,0.1
2019-03-17T00:08:54.144Z,0.1
2019-03-17T00:09:05.931Z,0.1
2019-03-17T00:09:17.714Z,0.1
2019-03-17T00:09:29.485Z,0.1
2019-03-17T00:09:41.268Z,0.1
2019-03-17T00:09:53.041Z,0.1
2019-03-17T00:10:04.824Z,0.1
2019-03-17T00:10:16.579Z,0.1
2019-03-17T00:10:28.347Z,0.1
2019-03-17T00:10:40.118Z,0.1
2019-03-17T00:10:52.715Z,0.1
2019-03-17T00:11:03.695Z,0.1
2019-03-17T00:11:15.442Z,0.1
2019-03-17T00:11:27.227Z,0.2
2019-03-17T00:11:38.997Z,0.2
2019-03-17T00:11:50.789Z,0.1
2019-03-17T00:12:02.558Z,0.1
2019-03-17T00:12:14.334Z,0.1
2019-03-17T00:12:26.105Z,0.1
2019-03-17T00:12:37.880Z,0.1
2019-03-17T00:12:49.624Z,0.1
2019-03-17T00:13:01.410Z,0.1
2019-03-17T00:13:13.175Z,0.1
2019-03-17T00:13:24.927Z,0.1
2019-03-17T00:13:36.685Z,0.3
2019-03-17T00:13:48.477Z,0.3
2019-03-17T00:14:00.233Z,0.3
2019-03-17T00:14:12.027Z,0.1
2019-03-17T00:14:23.792Z,0.1
2019-03-17T00:14:35.576Z,0.1
2019-03-17T00:14:47.383Z,0.1
2019-03-17T00:15:04.911Z,0.1
2019-03-17T00:15:11.854Z,0.1
2019-03-17T00:15:23.607Z,0.1
2019-03-17T00:15:35.389Z,0.2
2019-03-17T00:15:47.145Z,0.2
2019-03-17T00:15:58.935Z,0.2
2019-03-17T00:16:10.715Z,0.2
2019-03-17T00:16:22.499Z,0.2
2019-03-17T00:16:34.252Z,0.2
2019-03-17T00:16:46.025Z,0.1
2019-03-17T00:16:57.822Z,0.2
2019-03-17T00:17:09.584Z,0.2
2019-03-17T00:17:21.342Z,0.1
2019-03-17T00:17:33.117Z,0.1
2019-03-17T00:17:45.863Z,0.1
2019-03-17T00:17:57.623Z,0.2
2019-03-17T00:18:09.394Z,0.2
2019-03-17T00:18:21.221Z,0.2
2019-03-17T00:18:32.966Z,0.2
2019-03-17T00:18:44.732Z,0.1
2019-03-17T00:18:56.488Z,0.1
2019-03-17T00:19:08.290Z,0.1
2019-03-17T00:19:20.059Z,0.1
2019-03-17T00:19:32.815Z,0.1
2019-03-17T00:19:44.600Z,0.1
2019-03-17T00:19:56.358Z,0.1
2019-03-17T00:20:08.120Z,0.1
2019-03-17T00:20:19.934Z,0.2
2019-03-17T00:20:31.649Z,0.2
2019-03-17T00:20:43.438Z,0.1
2019-03-17T00:20:55.203Z,0.1
2019-03-17T00:21:06.962Z,0.1
2019-03-17T00:21:18.800Z,0.2
2019-03-17T00:21:30.547Z,0.2
2019-03-17T00:21:42.331Z,0.1
2019-03-17T00:21:54.088Z,0.1
2019-03-17T00:22:05.859Z,0.1
2019-03-17T00:22:17.604Z,0.2
2019-03-17T00:22:29.387Z,0.2
2019-03-17T00:22:41.143Z,0.4
2019-03-17T00:22:52.900Z,0.4
2019-03-17T00:23:04.673Z,0.4
2019-03-17T00:23:16.447Z,0.2
2019-03-17T00:23:28.215Z,0.1
2019-03-17T00:23:39.985Z,0.1
2019-03-17T00:23:51.782Z,0.2
2019-03-17T00:24:03.560Z,0.1
2019-03-17T00:24:15.308Z,0.1
2019-03-17T00:24:27.103Z,0.1
2019-03-17T00:24:38.868Z,0.1
2019-03-17T00:24:50.628Z,0.2
2019-03-17T00:25:08.820Z,0.2
2019-03-17T00:25:15.125Z,0.1
2019-03-17T00:25:26.895Z,0.1
2019-03-17T00:25:38.661Z,0.1
2019-03-17T00:25:50.460Z,0.2
2019-03-17T00:26:02.206Z,0.1
2019-03-17T00:26:13.968Z,0.1
2019-03-17T00:26:25.721Z,0.1
2019-03-17T00:26:37.515Z,0.1
2019-03-17T00:26:49.273Z,0.1
2019-03-17T00:27:01.047Z,0.1
2019-03-17T00:27:12.814Z,0.2
2019-03-17T00:27:24.579Z,0.1
2019-03-17T00:27:36.335Z,0.2
2019-03-17T00:27:48.088Z,0.1
2019-03-17T00:27:59.883Z,0.2
2019-03-17T00:28:11.626Z,0.2
2019-03-17T00:28:23.388Z,0.1
2019-03-17T00:28:35.213Z,0.1
2019-03-17T00:28:47.925Z,0.4
2019-03-17T00:28:59.715Z,0.4
2019-03-17T00:29:11.463Z,0.4
2019-03-17T00:29:23.236Z,0.2
2019-03-17T00:29:35.020Z,0.2
2019-03-17T00:29:46.758Z,0.2
2019-03-17T00:29:58.536Z,0.2
2019-03-17T00:30:10.324Z,0.1
2019-03-17T00:30:22.061Z,0.1
2019-03-17T00:30:33.855Z,0.1
2019-03-17T00:30:45.622Z,0.1
2019-03-17T00:30:57.375Z,0.1
2019-03-17T00:31:09.143Z,0.1
2019-03-17T00:31:24.023Z,0.1
2019-03-17T00:31:33.668Z,0.2
2019-03-17T00:31:45.424Z,0.2
2019-03-17T00:31:57.196Z,0.2
2019-03-17T00:32:08.972Z,0.1
2019-03-17T00:32:20.723Z,0.1
2019-03-17T00:32:32.471Z,0.1
2019-03-17T00:32:44.242Z,0.1
2019-03-17T00:32:55.995Z,0.1
2019-03-17T00:33:07.745Z,0.1
2019-03-17T00:33:19.495Z,0.1
2019-03-17T00:33:31.251Z,0.2
2019-03-17T00:33:42.995Z,0.2
2019-03-17T00:33:54.764Z,0.2
2019-03-17T00:34:06.524Z,0.1
2019-03-17T00:34:18.315Z,0.2
2019-03-17T00:34:30.102Z,0.1
2019-03-17T00:34:44.249Z,0.1
2019-03-17T00:34:55.558Z,0.1
2019-03-17T00:35:13.204Z,0.1
2019-03-17T00:35:24.976Z,0.1
2019-03-17T00:35:36.749Z,0.1
2019-03-17T00:35:48.487Z,0.1
2019-03-17T00:36:00.265Z,0.1
2019-03-17T00:36:12.051Z,0.1
2019-03-17T00:36:23.801Z,0.1
2019-03-17T00:36:35.631Z,0.1
2019-03-17T00:36:47.385Z,0.1
2019-03-17T00:36:59.163Z,0.1
2019-03-17T00:37:10.941Z,0.1
2019-03-17T00:37:22.702Z,0.1
2019-03-17T00:37:34.485Z,0.2
2019-03-17T00:37:46.244Z,0.2
2019-03-17T00:37:58.010Z,0.2
2019-03-17T00:38:09.753Z,0.2
2019-03-17T00:38:21.506Z,3.5
2019-03-17T00:38:33.283Z,3.7
2019-03-17T00:38:45.087Z,0.5
2019-03-17T00:38:56.835Z,0.2
2019-03-17T00:39:08.606Z,0.2
2019-03-17T00:39:20.357Z,0.4
2019-03-17T00:39:32.130Z,0.4
2019-03-17T00:39:43.897Z,0.3
2019-03-17T00:39:55.639Z,0.2
2019-03-17T00:40:07.420Z,0.1
2019-03-17T00:40:19.179Z,0.2
2019-03-17T00:40:30.934Z,0.2
2019-03-17T00:40:42.701Z,0.2
2019-03-17T00:40:54.481Z,0.1
2019-03-17T00:41:06.261Z,0.1
2019-03-17T00:41:18.009Z,0.1
2019-03-17T00:41:31.584Z,0.1
2019-03-17T00:41:41.558Z,0.1
2019-03-17T00:41:53.316Z,0.1
2019-03-17T00:42:05.089Z,0.1
2019-03-17T00:42:16.835Z,0.1
2019-03-17T00:42:28.624Z,0.1
2019-03-17T00:42:40.365Z,0.1
2019-03-17T00:42:52.130Z,0.1
2019-03-17T00:43:03.901Z,0.2
2019-03-17T00:43:15.643Z,0.2
2019-03-17T00:43:27.472Z,0.1
2019-03-17T00:43:39.259Z,0.1
2019-03-17T00:43:51.055Z,0.1
2019-03-17T00:44:02.821Z,0.1
2019-03-17T00:44:14.574Z,0.1
2019-03-17T00:44:26.348Z,0.1
2019-03-17T00:44:38.153Z,0.1
2019-03-17T00:44:49.908Z,0.1
2019-03-17T00:45:01.674Z,0.3
2019-03-17T00:45:13.420Z,0.3
2019-03-17T00:45:25.156Z,0.4
2019-03-17T00:45:36.941Z,0.2
2019-03-17T00:45:48.730Z,0.2
2019-03-17T00:46:00.482Z,0.2
2019-03-17T00:46:12.273Z,0.2
2019-03-17T00:46:24.065Z,0.2
2019-03-17T00:46:35.863Z,0.2
2019-03-17T00:46:47.620Z,0.2
2019-03-17T00:46:59.394Z,0.2
2019-03-17T00:47:11.179Z,0.1
2019-03-17T00:47:22.939Z,0.1
2019-03-17T00:47:34.728Z,0.2
2019-03-17T00:47:46.496Z,0.2
2019-03-17T00:47:58.273Z,0.2
2019-03-17T00:48:10.046Z,0.1
2019-03-17T00:48:21.832Z,0.1
2019-03-17T00:48:33.604Z,0.1
2019-03-17T00:48:45.350Z,0.1
2019-03-17T00:48:57.098Z,0.1
2019-03-17T00:49:08.863Z,0.1
2019-03-17T00:49:20.614Z,0.1
2019-03-17T00:49:32.375Z,0.1
2019-03-17T00:49:44.121Z,0.1
2019-03-17T00:49:55.889Z,0.1
2019-03-17T00:50:07.625Z,0.1
2019-03-17T00:50:19.368Z,0.1
2019-03-17T00:50:31.126Z,0.2
2019-03-17T00:50:42.917Z,0.2
2019-03-17T00:50:54.679Z,0.1
2019-03-17T00:51:06.431Z,0.1
2019-03-17T00:51:18.227Z,0.1
2019-03-17T00:51:29.926Z,0.2
2019-03-17T00:51:41.686Z,0.1
2019-03-17T00:51:53.467Z,0.1
2019-03-17T00:52:05.227Z,0.2
2019-03-17T00:52:17.024Z,0.2
2019-03-17T00:52:28.805Z,0.2
2019-03-17T00:52:40.605Z,0.2
2019-03-17T00:52:52.392Z,0.8
2019-03-17T00:53:04.188Z,0.8
2019-03-17T00:53:15.989Z,0.8
2019-03-17T00:53:27.847Z,0.2
2019-03-17T00:53:39.599Z,0.2
2019-03-17T00:53:51.383Z,0.2
2019-03-17T00:54:03.134Z,0.2
2019-03-17T00:54:14.898Z,0.2
2019-03-17T00:54:26.706Z,0.2
2019-03-17T00:54:38.454Z,0.2
2019-03-17T00:54:50.214Z,0.1
2019-03-17T00:55:01.991Z,0.1
2019-03-17T00:55:13.743Z,0.1
2019-03-17T00:55:25.527Z,0.9
2019-03-17T00:55:37.325Z,0.9
2019-03-17T00:55:49.110Z,0.8
2019-03-17T00:56:00.876Z,0.1
2019-03-17T00:56:12.666Z,0.1
2019-03-17T00:56:24.427Z,0.3
2019-03-17T00:56:36.171Z,0.3
2019-03-17T00:56:48.960Z,0.2
2019-03-17T00:57:00.716Z,0.2
2019-03-17T00:57:12.494Z,0.2
2019-03-17T00:57:24.272Z,0.1
2019-03-17T00:57:36.044Z,0.1
2019-03-17T00:57:47.809Z,0.1
2019-03-17T00:57:59.893Z,0.1
2019-03-17T00:58:11.331Z,0.1
2019-03-17T00:58:23.108Z,0.1
2019-03-17T00:58:34.914Z,0.2
2019-03-17T00:58:46.697Z,0.2
2019-03-17T00:58:58.449Z,0.3
2019-03-17T00:59:10.200Z,0.4
2019-03-17T00:59:21.975Z,0.2
2019-03-17T00:59:33.740Z,0.2
2019-03-17T00:59:45.494Z,0.1
2019-03-17T00:59:57.236Z,0.1
2019-03-17T01:00:08.999Z,0.1
2019-03-17T01:00:20.754Z,0.1
2019-03-17T01:00:32.519Z,0.2
2019-03-17T01:00:44.263Z,0.2
2019-03-17T01:00:56.023Z,0.2
2019-03-17T01:01:07.791Z,0.2
2019-03-17T01:01:19.563Z,0.2
2019-03-17T01:01:31.307Z,0.2
2019-03-17T01:01:43.081Z,0.1
2019-03-17T01:01:54.824Z,0.1
2019-03-17T01:02:06.592Z,0.1
2019-03-17T01:02:18.332Z,0.1
2019-03-17T01:02:30.123Z,0.1
2019-03-17T01:02:41.872Z,0.3
2019-03-17T01:02:53.664Z,0.4
2019-03-17T01:03:05.458Z,0.2
2019-03-17T01:03:17.224Z,0.2
2019-03-17T01:03:29.028Z,0.2
2019-03-17T01:03:40.788Z,0.1
2019-03-17T01:03:52.592Z,0.1
2019-03-17T01:04:04.323Z,0.1
2019-03-17T01:04:16.107Z,0.1
2019-03-17T01:04:27.863Z,0.1
2019-03-17T01:04:39.634Z,0.1
2019-03-17T01:04:56.318Z,0.1
2019-03-17T01:05:04.100Z,0.1
2019-03-17T01:05:15.919Z,0.1
2019-03-17T01:05:27.683Z,0.2
2019-03-17T01:05:39.441Z,0.2
2019-03-17T01:05:51.242Z,0.1
2019-03-17T01:06:03.002Z,0.1
2019-03-17T01:06:14.759Z,0.1
2019-03-17T01:06:26.513Z,0.1
2019-03-17T01:06:38.301Z,0.1
2019-03-17T01:06:50.063Z,0.1
2019-03-17T01:07:01.844Z,0.1
2019-03-17T01:07:13.614Z,0.1
2019-03-17T01:07:25.385Z,0.2
2019-03-17T01:07:37.156Z,0.3
2019-03-17T01:07:48.898Z,0.2
2019-03-17T01:08:00.638Z,0.2
2019-03-17T01:08:12.385Z,0.1
2019-03-17T01:08:24.157Z,0.1
2019-03-17T01:08:35.961Z,0.1
2019-03-17T01:08:47.723Z,1.2
2019-03-17T01:08:59.513Z,1.2
2019-03-17T01:09:11.273Z,1.2
2019-03-17T01:09:23.048Z,0.1
2019-03-17T01:09:34.857Z,0.1
2019-03-17T01:09:46.629Z,0.2
2019-03-17T01:09:58.392Z,0.2
2019-03-17T01:10:10.214Z,0.2
2019-03-17T01:10:21.978Z,0.2
2019-03-17T01:10:33.753Z,0.2
2019-03-17T01:10:45.515Z,0.1
2019-03-17T01:10:57.274Z,0.1
2019-03-17T01:11:09.081Z,0.1
2019-03-17T01:11:20.864Z,0.1
2019-03-17T01:11:32.617Z,0.1
2019-03-17T01:11:44.382Z,0.1
2019-03-17T01:11:56.163Z,0.2
2019-03-17T01:12:08.904Z,0.1
2019-03-17T01:12:20.664Z,0.2
2019-03-17T01:12:32.444Z,0.1
2019-03-17T01:12:45.002Z,0.1
2019-03-17T01:12:55.958Z,0.1
2019-03-17T01:13:07.723Z,0.1
2019-03-17T01:13:19.481Z,0.1
2019-03-17T01:13:31.279Z,0.1
2019-03-17T01:13:43.064Z,0.1
2019-03-17T01:13:54.856Z,0.1
2019-03-17T01:14:06.636Z,0.1
2019-03-17T01:14:18.399Z,0.2
2019-03-17T01:14:30.183Z,0.2
2019-03-17T01:14:41.980Z,0.1
2019-03-17T01:14:53.752Z,0.1
2019-03-17T01:15:05.537Z,0.1
2019-03-17T01:15:17.305Z,0.1
2019-03-17T01:15:29.062Z,0.2
2019-03-17T01:15:40.832Z,0.2
2019-03-17T01:15:52.607Z,0.1
2019-03-17T01:16:04.371Z,0.1
2019-03-17T01:16:16.140Z,0.1
2019-03-17T01:16:27.897Z,0.1
2019-03-17T01:16:39.637Z,0.2
2019-03-17T01:16:51.440Z,0.2
2019-03-17T01:17:03.180Z,0.1
2019-03-17T01:17:14.957Z,0.1
2019-03-17T01:17:26.755Z,0.1
2019-03-17T01:17:38.544Z,0.1
2019-03-17T01:17:50.297Z,0.1
2019-03-17T01:18:02.054Z,0.1
2019-03-17T01:18:13.813Z,0.1
2019-03-17T01:18:25.609Z,0.1
2019-03-17T01:18:37.403Z,0.2
2019-03-17T01:18:49.197Z,0.2
2019-03-17T01:19:00.934Z,0.2
2019-03-17T01:19:12.682Z,0.2
2019-03-17T01:19:24.439Z,0.2
2019-03-17T01:19:36.234Z,0.3
2019-03-17T01:19:48.035Z,0.3
2019-03-17T01:19:59.925Z,0.2
2019-03-17T01:20:11.691Z,0.1
2019-03-17T01:20:23.481Z,0.1
2019-03-17T01:20:35.244Z,0.1
2019-03-17T01:20:47.029Z,0.1
2019-03-17T01:20:58.794Z,0.2
2019-03-17T01:21:10.552Z,0.2
2019-03-17T01:21:23.315Z,0.1
2019-03-17T01:21:35.061Z,0.1
2019-03-17T01:21:46.838Z,0.1
2019-03-17T01:21:58.618Z,0.1
2019-03-17T01:22:10.367Z,0.2
2019-03-17T01:22:22.135Z,0.2
2019-03-17T01:22:33.936Z,0.2
2019-03-17T01:22:45.683Z,0.1
2019-03-17T01:22:57.470Z,0.1
2019-03-17T01:23:09.253Z,0.2
2019-03-17T01:23:21.027Z,0.2
2019-03-17T01:23:32.787Z,0.1
2019-03-17T01:23:44.540Z,0.2
2019-03-17T01:23:56.329Z,0.2
2019-03-17T01:24:10.221Z,0.2
2019-03-17T01:24:19.827Z,0.2
2019-03-17T01:24:31.570Z,0.2
2019-03-17T01:24:43.315Z,0.2
2019-03-17T01:24:55.101Z,0.1
2019-03-17T01:25:06.861Z,0.1
2019-03-17T01:25:18.671Z,0.1
2019-03-17T01:25:30.430Z,0.2
2019-03-17T01:25:42.194Z,0.2
2019-03-17T01:25:53.961Z,0.2
2019-03-17T01:26:05.735Z,0.6
2019-03-17T01:26:17.503Z,0.6
2019-03-17T01:26:29.281Z,0.9
2019-03-17T01:26:41.046Z,0.4
2019-03-17T01:26:52.816Z,0.4
2019-03-17T01:27:04.608Z,0.2
2019-03-17T01:27:16.364Z,0.1
2019-03-17T01:27:28.143Z,0.2
2019-03-17T01:27:39.937Z,0.2
2019-03-17T01:27:51.711Z,0.2
2019-03-17T01:28:03.490Z,0.2
2019-03-17T01:28:15.264Z,0.1
2019-03-17T01:28:27.021Z,0.1
2019-03-17T01:28:38.797Z,0.1
2019-03-17T01:28:50.565Z,0.1
2019-03-17T01:29:02.352Z,0.1
2019-03-17T01:29:14.152Z,0.1
2019-03-17T01:29:25.916Z,0.1
2019-03-17T01:29:37.658Z,0.1
2019-03-17T01:29:49.417Z,0.1
2019-03-17T01:30:02.197Z,0.2
2019-03-17T01:30:13.939Z,0.3
2019-03-17T01:30:25.720Z,0.3
2019-03-17T01:30:37.495Z,0.3
2019-03-17T01:30:49.268Z,0.1
2019-03-17T01:31:01.046Z,0.1
2019-03-17T01:31:12.849Z,0.1
2019-03-17T01:31:24.646Z,0.1
2019-03-17T01:31:36.435Z,0.1
2019-03-17T01:31:48.212Z,0.1
2019-03-17T01:31:59.981Z,0.2
2019-03-17T01:32:11.730Z,0.2
2019-03-17T01:32:23.482Z,0.1
2019-03-17T01:32:35.231Z,0.2
2019-03-17T01:32:47.026Z,0.2
2019-03-17T01:32:58.815Z,0.1
2019-03-17T01:33:10.561Z,0.1
2019-03-17T01:33:22.340Z,0.1
2019-03-17T01:33:34.097Z,0.1
2019-03-17T01:33:45.866Z,0.1
2019-03-17T01:33:57.616Z,0.1
2019-03-17T01:34:09.374Z,0.2
2019-03-17T01:34:21.126Z,0.2
2019-03-17T01:34:32.878Z,0.2
2019-03-17T01:34:44.636Z,0.2
2019-03-17T01:35:08.040Z,0.1
2019-03-17T01:35:09.992Z,0.1
2019-03-17T01:35:20.836Z,0.1
2019-03-17T01:35:32.868Z,0.1
2019-03-17T01:35:44.369Z,0.1
2019-03-17T01:35:56.189Z,0.1
2019-03-17T01:36:07.966Z,0.2
2019-03-17T01:36:19.710Z,0.1
2019-03-17T01:36:31.486Z,0.1
2019-03-17T01:36:43.239Z,0.1
2019-03-17T01:36:55.018Z,0.2
2019-03-17T01:37:06.761Z,1.9
2019-03-17T01:37:18.521Z,1.9
2019-03-17T01:37:30.286Z,0.1
2019-03-17T01:37:42.072Z,0.1
2019-03-17T01:37:53.808Z,0.2
2019-03-17T01:38:05.555Z,0.2
2019-03-17T01:38:17.330Z,0.2
2019-03-17T01:38:29.077Z,0.1
2019-03-17T01:38:40.891Z,0.1
2019-03-17T01:38:52.652Z,0.2
2019-03-17T01:39:04.430Z,0.2
2019-03-17T01:39:16.221Z,0.2
2019-03-17T01:39:27.973Z,0.1
2019-03-17T01:39:39.729Z,0.1
2019-03-17T01:39:51.523Z,0.1
2019-03-17T01:40:03.319Z,0.1
2019-03-17T01:40:15.060Z,0.1
2019-03-17T01:40:26.833Z,0.3
2019-03-17T01:40:38.589Z,0.3
2019-03-17T01:40:50.363Z,0.3
2019-03-17T01:41:02.280Z,0.1
2019-03-17T01:41:14.062Z,0.2
2019-03-17T01:41:25.838Z,0.3
2019-03-17T01:41:37.588Z,0.3
2019-03-17T01:41:49.358Z,0.2
2019-03-17T01:42:01.117Z,0.1
2019-03-17T01:42:12.876Z,0.1
2019-03-17T01:42:24.618Z,0.1
2019-03-17T01:42:36.400Z,0.1
2019-03-17T01:42:48.140Z,0.2
2019-03-17T01:42:59.922Z,0.2
2019-03-17T01:43:11.716Z,0.2
2019-03-17T01:43:23.472Z,0.2
2019-03-17T01:43:35.253Z,0.1
2019-03-17T01:43:47.013Z,0.2
2019-03-17T01:43:58.789Z,0.2
2019-03-17T01:44:10.523Z,0.2
2019-03-17T01:44:22.279Z,0.1
2019-03-17T01:44:34.051Z,0.1
2019-03-17T01:44:45.805Z,0.1
2019-03-17T01:44:57.581Z,0.1
2019-03-17T01:45:09.355Z,0.2
2019-03-17T01:45:21.108Z,0.2
2019-03-17T01:45:32.833Z,0.2
2019-03-17T01:45:44.597Z,0.2
2019-03-17T01:45:56.346Z,0.9
2019-03-17T01:46:08.133Z,0.8
2019-03-17T01:46:19.871Z,0.8
2019-03-17T01:46:31.690Z,0.2
2019-03-17T01:46:43.449Z,0.1
2019-03-17T01:46:55.218Z,0.1
2019-03-17T01:47:06.987Z,0.1
2019-03-17T01:47:18.765Z,0.2
2019-03-17T01:47:31.525Z,0.2
2019-03-17T01:47:43.291Z,0.2
2019-03-17T01:47:55.047Z,0.1
2019-03-17T01:48:06.789Z,0.2
2019-03-17T01:48:18.576Z,0.2
2019-03-17T01:48:30.381Z,0.2
2019-03-17T01:48:42.096Z,0.1
2019-03-17T01:48:53.854Z,0.1
2019-03-17T01:49:05.615Z,0.2
2019-03-17T01:49:17.378Z,0.2
2019-03-17T01:49:29.130Z,0.2
2019-03-17T01:49:40.884Z,0.2
2019-03-17T01:49:52.639Z,0.2
2019-03-17T01:50:04.412Z,0.2
2019-03-17T01:50:16.164Z,0.2
2019-03-17T01:50:27.921Z,0.2
2019-03-17T01:50:39.712Z,0.2
2019-03-17T01:50:51.466Z,0.1
2019-03-17T01:51:03.245Z,0.1
2019-03-17T01:51:15.038Z,0.1
2019-03-17T01:51:26.798Z,0.1
2019-03-17T01:51:38.610Z,0.1
2019-03-17T01:51:50.359Z,0.5
2019-03-17T01:52:02.112Z,0.5
2019-03-17T01:52:13.922Z,0.7
2019-03-17T01:52:25.722Z,0.7
2019-03-17T01:52:37.480Z,0.7
2019-03-17T01:52:49.250Z,0.1
2019-03-17T01:53:01.020Z,0.2
2019-03-17T01:53:12.778Z,1.1
2019-03-17T01:53:24.540Z,1
2019-03-17T01:53:36.298Z,1
2019-03-17T01:53:48.068Z,0.1
2019-03-17T01:53:59.836Z,0.1
2019-03-17T01:54:11.622Z,0.2
2019-03-17T01:54:23.365Z,0.2
2019-03-17T01:54:35.119Z,0.2
2019-03-17T01:54:46.868Z,0.2
2019-03-17T01:54:58.650Z,0.2
2019-03-17T01:55:10.409Z,0.1
2019-03-17T01:55:22.189Z,0.1
2019-03-17T01:55:33.947Z,0.1
2019-03-17T01:55:45.725Z,0.1
2019-03-17T01:55:57.487Z,0.2
2019-03-17T01:56:09.241Z,0.3
2019-03-17T01:56:20.999Z,0.3
2019-03-17T01:56:32.741Z,0.3
2019-03-17T01:56:44.501Z,0.2
2019-03-17T01:56:56.259Z,0.2
2019-03-17T01:57:08.071Z,0.1
2019-03-17T01:57:19.863Z,0.1
2019-03-17T01:57:31.617Z,0.1
2019-03-17T01:57:43.412Z,0.1
2019-03-17T01:57:55.165Z,0.1
2019-03-17T01:58:06.911Z,0.1
2019-03-17T01:58:18.661Z,0.1
2019-03-17T01:58:30.451Z,3.1
2019-03-17T01:58:42.225Z,3.1
2019-03-17T01:58:53.975Z,3.3
2019-03-17T01:59:05.764Z,0.3
2019-03-17T01:59:17.550Z,0.2
2019-03-17T01:59:29.323Z,0.2
2019-03-17T01:59:41.060Z,0.2
2019-03-17T01:59:52.837Z,0.4
2019-03-17T02:00:04.577Z,0.4
2019-03-17T02:00:16.338Z,0.1
2019-03-17T02:00:28.090Z,0.1
2019-03-17T02:00:39.834Z,0.1
2019-03-17T02:00:51.581Z,0.1
2019-03-17T02:01:03.353Z,0.1
2019-03-17T02:01:16.111Z,0.2
2019-03-17T02:01:27.889Z,0.2
2019-03-17T02:01:39.629Z,1.7
2019-03-17T02:01:51.418Z,1.7
2019-03-17T02:02:03.181Z,1.7
2019-03-17T02:02:15.101Z,0.4
2019-03-17T02:02:26.856Z,0.4
2019-03-17T02:02:38.635Z,0.3
2019-03-17T02:02:50.427Z,0.1
2019-03-17T02:03:02.210Z,0.1
2019-03-17T02:03:13.953Z,0.2
2019-03-17T02:03:25.750Z,0.3
2019-03-17T02:03:37.523Z,0.3
2019-03-17T02:03:49.283Z,0.2
2019-03-17T02:04:01.090Z,0.2
2019-03-17T02:04:12.848Z,0.2
2019-03-17T02:04:24.621Z,0.1
2019-03-17T02:04:36.433Z,0.2
2019-03-17T02:04:48.213Z,0.2
2019-03-17T02:04:59.981Z,0.2
2019-03-17T02:05:21.181Z,0.1
2019-03-17T02:05:24.435Z,0.1
2019-03-17T02:05:36.204Z,0.2
2019-03-17T02:05:47.945Z,0.2
2019-03-17T02:05:59.733Z,0.2
2019-03-17T02:06:11.482Z,0.1
2019-03-17T02:06:23.238Z,0.1
2019-03-17T02:06:35.008Z,0.1
2019-03-17T02:06:46.781Z,0.1
2019-03-17T02:06:58.548Z,0.2
2019-03-17T02:07:10.323Z,0.1
2019-03-17T02:07:22.085Z,0.1
2019-03-17T02:07:33.867Z,1.7
2019-03-17T02:07:45.661Z,1.8
2019-03-17T02:07:57.415Z,0.2
2019-03-17T02:08:09.189Z,0.2
2019-03-17T02:08:20.954Z,0.2
2019-03-17T02:08:32.735Z,0.1
2019-03-17T02:08:44.490Z,0.1
2019-03-17T02:08:56.261Z,0.1
2019-03-17T02:09:08.071Z,0.1
2019-03-17T02:09:19.841Z,0.2
2019-03-17T02:09:31.619Z,0.2
2019-03-17T02:09:43.373Z,0.2
2019-03-17T02:09:55.137Z,0.1
2019-03-17T02:10:06.895Z,0.1
2019-03-17T02:10:18.678Z,0.2
2019-03-17T02:10:30.483Z,0.2
2019-03-17T02:10:42.283Z,0.2
2019-03-17T02:10:54.064Z,0.1
2019-03-17T02:11:05.831Z,0.1
2019-03-17T02:11:17.593Z,0.1
2019-03-17T02:11:29.357Z,0.1
2019-03-17T02:11:41.110Z,0.1
2019-03-17T02:11:52.877Z,0.1
2019-03-17T02:12:04.654Z,0.1
2019-03-17T02:12:16.465Z,0.2
2019-03-17T02:12:28.221Z,0.2
2019-03-17T02:12:40.000Z,0.3
2019-03-17T02:12:51.817Z,0.2
2019-03-17T02:13:03.599Z,0.2
2019-03-17T02:13:15.350Z,0.2
2019-03-17T02:13:27.116Z,0.1
2019-03-17T02:13:38.880Z,0.1
2019-03-17T02:13:50.638Z,0.3
2019-03-17T02:14:02.420Z,0.3
2019-03-17T02:14:14.169Z,0.1
2019-03-17T02:14:25.976Z,0.2
2019-03-17T02:14:37.710Z,0.2
2019-03-17T02:14:49.452Z,0.2
2019-03-17T02:15:01.225Z,0.2
2019-03-17T02:15:12.987Z,0.2
2019-03-17T02:15:24.751Z,0.2
2019-03-17T02:15:36.533Z,0.2
2019-03-17T02:15:48.304Z,0.1
2019-03-17T02:16:00.075Z,0.1
2019-03-17T02:16:11.894Z,0.1
2019-03-17T02:16:23.648Z,0.2
2019-03-17T02:16:35.404Z,0.1
2019-03-17T02:16:47.183Z,0.2
2019-03-17T02:16:58.934Z,2.1
2019-03-17T02:17:10.734Z,2.1
2019-03-17T02:17:22.470Z,2.2
2019-03-17T02:17:34.254Z,0.2
2019-03-17T02:17:46.026Z,0.2
2019-03-17T02:17:57.791Z,0.2
2019-03-17T02:18:09.548Z,0.2
2019-03-17T02:18:21.317Z,0.2
2019-03-17T02:18:33.085Z,0.2
2019-03-17T02:18:44.850Z,0.2
2019-03-17T02:18:56.626Z,0.1
2019-03-17T02:19:09.429Z,0.1
2019-03-17T02:19:22.214Z,0.1
2019-03-17T02:19:33.999Z,0.2
2019-03-17T02:19:45.750Z,0.2
2019-03-17T02:19:57.503Z,0.2
2019-03-17T02:20:09.253Z,0.2
2019-03-17T02:20:21.023Z,0.2
2019-03-17T02:20:32.787Z,0.1
2019-03-17T02:20:44.547Z,0.1
2019-03-17T02:20:56.280Z,0.1
2019-03-17T02:21:08.026Z,0.2
2019-03-17T02:21:19.798Z,0.2
2019-03-17T02:21:31.551Z,0.1
2019-03-17T02:21:43.298Z,0.1
2019-03-17T02:21:55.069Z,0.2
2019-03-17T02:22:06.830Z,0.2
2019-03-17T02:22:18.588Z,0.2
2019-03-17T02:22:30.374Z,0.2
2019-03-17T02:22:42.122Z,0.2
2019-03-17T02:22:53.921Z,0.2
2019-03-17T02:23:05.664Z,0.2
2019-03-17T02:23:17.423Z,0.1
2019-03-17T02:23:29.214Z,0.1
2019-03-17T02:23:40.956Z,0.1
2019-03-17T02:23:52.707Z,0.1
2019-03-17T02:24:04.465Z,0.1
2019-03-17T02:24:16.240Z,0.2
2019-03-17T02:24:28.036Z,0.3
2019-03-17T02:24:39.766Z,0.2
2019-03-17T02:24:51.508Z,0.2
2019-03-17T02:25:03.282Z,0.2
2019-03-17T02:25:15.038Z,0.2
2019-03-17T02:25:26.789Z,0.2
2019-03-17T02:25:38.585Z,0.2
2019-03-17T02:25:50.339Z,0.2
2019-03-17T02:26:02.110Z,0.2
2019-03-17T02:26:13.870Z,0.1
2019-03-17T02:26:25.621Z,0.2
2019-03-17T02:26:37.418Z,0.4
2019-03-17T02:26:49.173Z,0.6
2019-03-17T02:27:00.918Z,0.6
2019-03-17T02:27:12.692Z,0.1
2019-03-17T02:27:24.473Z,0.1
2019-03-17T02:27:36.263Z,0.1
2019-03-17T02:27:48.052Z,0.1
2019-03-17T02:27:59.812Z,0.1
2019-03-17T02:28:11.597Z,0.1
2019-03-17T02:28:23.382Z,0.1
2019-03-17T02:28:35.144Z,0.1
2019-03-17T02:28:46.908Z,0.1
2019-03-17T02:28:58.712Z,0.1
2019-03-17T02:29:10.477Z,0.2
2019-03-17T02:29:22.254Z,0.2
2019-03-17T02:29:34.148Z,0.2
2019-03-17T02:29:45.919Z,0.2
2019-03-17T02:29:57.704Z,0.1
2019-03-17T02:30:09.462Z,0.2
2019-03-17T02:30:21.232Z,0.2
2019-03-17T02:30:33.042Z,0.1
2019-03-17T02:30:44.817Z,0.2
2019-03-17T02:30:56.584Z,0.2
2019-03-17T02:31:08.356Z,0.2
2019-03-17T02:31:20.112Z,0.2
2019-03-17T02:31:31.910Z,0.2
2019-03-17T02:31:43.672Z,0.2
2019-03-17T02:31:55.442Z,0.2
2019-03-17T02:32:07.222Z,0.1
2019-03-17T02:32:18.987Z,0.1
2019-03-17T02:32:30.732Z,0.1
2019-03-17T02:32:42.500Z,0.1
2019-03-17T02:32:54.262Z,0.2
2019-03-17T02:33:06.049Z,0.2
2019-03-17T02:33:17.804Z,0.2
2019-03-17T02:33:29.576Z,0.2
2019-03-17T02:33:41.323Z,0.2
2019-03-17T02:33:53.103Z,0.1
2019-03-17T02:34:04.866Z,0.1
2019-03-17T02:34:17.635Z,0.1
2019-03-17T02:34:29.421Z,0.1
2019-03-17T02:34:41.182Z,0.1
2019-03-17T02:34:52.948Z,0.1
2019-03-17T02:35:05.706Z,0.1
2019-03-17T02:35:17.464Z,0.2
2019-03-17T02:35:38.388Z,0.2
2019-03-17T02:35:42.914Z,0.2
2019-03-17T02:35:54.659Z,0.2
2019-03-17T02:36:06.446Z,0.2
2019-03-17T02:36:18.204Z,0.2
2019-03-17T02:36:29.979Z,0.1
2019-03-17T02:36:41.750Z,0.1
2019-03-17T02:36:53.526Z,0.1
2019-03-17T02:37:05.277Z,0.1
2019-03-17T02:37:17.073Z,0.1
2019-03-17T02:37:28.855Z,0.2
2019-03-17T02:37:40.662Z,0.4
2019-03-17T02:37:52.457Z,0.4
2019-03-17T02:38:04.199Z,0.2
2019-03-17T02:38:15.987Z,0.1
2019-03-17T02:38:27.742Z,0.2
2019-03-17T02:38:39.505Z,0.1
2019-03-17T02:38:51.252Z,0.1
2019-03-17T02:39:03.046Z,0.1
2019-03-17T02:39:14.783Z,0.1
2019-03-17T02:39:26.690Z,0.1
2019-03-17T02:39:38.483Z,0.1
2019-03-17T02:39:50.263Z,0.1
2019-03-17T02:40:02.024Z,0.2
2019-03-17T02:40:13.812Z,0.2
2019-03-17T02:40:25.555Z,0.3
2019-03-17T02:40:37.323Z,0.2
2019-03-17T02:40:49.136Z,0.1
2019-03-17T02:41:01.868Z,0.1
2019-03-17T02:41:13.645Z,0.1
2019-03-17T02:41:25.417Z,0.1
2019-03-17T02:41:37.197Z,0.1
2019-03-17T02:41:48.965Z,0.1
2019-03-17T02:42:00.734Z,0.1
2019-03-17T02:42:12.497Z,0.1
2019-03-17T02:42:24.262Z,0.1
2019-03-17T02:42:36.035Z,0.1